Time;durP1;ratioP1;P1;durP2;ratioP2;P2;SDS_P1;SDS_P2;PMS_P1;PMS_P2;Temp;Humidity;BMP_temperature;BMP_pressure;BME280_temperature;BME280_humidity;BME280_pressure;Samples;Min_cycle;Max_cycle;Signal;HPM_P1;HPM_P2
2024/01/21 00:01:31;;;;;;;90.30;30.27;;;-2.40;99.90;;;;;;6312405;22;20519;-74
2024/01/21 00:04:00;;;;;;;56.78;20.77;;;-2.40;99.90;;;;;;6312253;22;20101;-74
2024/01/21 00:06:31;;;;;;;59.05;21.45;;;-2.40;99.90;;;;;;6339908;22;20447;-74
2024/01/21 00:09:00;;;;;;;28.60;12.65;;;-2.50;99.90;;;;;;6312409;22;20452;-74
2024/01/21 00:11:31;;;;;;;34.88;12.73;;;-2.50;99.90;;;;;;6312113;22;20022;-74
2024/01/21 00:14:00;;;;;;;27.98;10.52;;;-2.60;99.90;;;;;;6312028;22;20025;-74
2024/01/21 00:16:30;;;;;;;28.45;10.60;;;-2.70;99.90;;;;;;6311654;22;20072;-74
2024/01/21 00:18:58;;;;;;;18.77;7.53;;;-2.60;99.90;;;;;;6339571;22;20022;-74
2024/01/21 00:21:28;;;;;;;24.27;8.38;;;-2.60;99.90;;;;;;6311907;22;20022;-74
2024/01/21 00:24:07;;;;;;;28.35;8.68;;;-2.70;99.90;;;;;;6327611;22;20101;-78
2024/01/21 00:26:41;;;;;;;23.35;9.18;;;-2.70;99.90;;;;;;6325327;22;20023;-78
2024/01/21 00:29:31;;;;;;;23.52;9.38;;;-2.70;99.90;;;;;;6243141;23;20008;-79
2024/01/21 00:32:06;;;;;;;19.77;7.85;;;-2.40;99.90;;;;;;6267664;23;20027;-78
2024/01/21 00:34:44;;;;;;;20.38;8.57;;;-2.80;99.90;;;;;;6208987;23;20020;-80
2024/01/21 00:37:23;;;;;;;24.02;8.90;;;-2.80;99.90;;;;;;6198650;23;20068;-79
2024/01/21 00:40:00;;;;;;;16.63;7.13;;;-2.60;99.90;;;;;;6205557;23;20484;-78
2024/01/21 00:42:32;;;;;;;31.35;11.13;;;-2.80;99.90;;;;;;6141961;23;20034;-78
2024/01/21 00:45:01;;;;;;;23.30;9.70;;;-2.90;99.90;;;;;;6114261;23;20029;-78
2024/01/21 00:47:30;;;;;;;23.02;9.60;;;-2.90;99.90;;;;;;6143726;23;20065;-78
2024/01/21 00:50:01;;;;;;;28.20;10.25;;;-2.80;99.90;;;;;;6143266;23;20037;-79
2024/01/21 00:52:33;;;;;;;22.63;9.25;;;-1.80;99.90;;;;;;6172909;23;20024;-79
2024/01/21 00:55:03;;;;;;;19.02;8.05;;;-3.40;99.90;;;;;;6230222;23;20039;-78
2024/01/21 00:57:37;;;;;;;26.08;9.05;;;-4.10;99.90;;;;;;6239545;23;20020;-79
2024/01/21 01:00:43;;;;;;;21.75;9.20;;;-3.00;99.90;;;;;;6240911;23;20016;-80
2024/01/21 01:03:24;;;;;;;26.80;9.48;;;-3.00;99.90;;;;;;6204309;23;20072;-80
2024/01/21 01:06:04;;;;;;;22.27;8.63;;;-2.90;99.90;;;;;;6204049;23;20016;-80
2024/01/21 01:08:54;;;;;;;25.85;8.55;;;-3.00;99.90;;;;;;6076654;23;20036;-82
2024/01/21 01:12:05;;;;;;;27.80;9.77;;;-2.90;99.90;;;;;;6073765;23;20040;-82
2024/01/21 01:14:41;;;;;;;22.52;9.27;;;-3.10;99.90;;;;;;6115380;23;20025;-80
2024/01/21 01:17:12;;;;;;;19.92;8.23;;;-3.20;99.90;;;;;;6117515;23;20028;-81
2024/01/21 01:19:44;;;;;;;25.25;9.40;;;-2.50;99.90;;;;;;6115227;23;20046;-79
2024/01/21 01:22:21;;;;;;;20.75;8.68;;;-3.30;99.90;;;;;;6109261;23;20053;-82
2024/01/21 01:24:57;;;;;;;22.00;8.88;;;-3.10;99.90;;;;;;6130309;23;20550;-84
2024/01/21 01:27:36;;;;;;;25.88;9.75;;;-3.20;99.90;;;;;;6179509;23;20031;-85
2024/01/21 01:30:10;;;;;;;21.45;8.88;;;-3.20;99.90;;;;;;6227593;22;20024;-83
2024/01/21 02:43:39;;;;;;;21.50;6.80;;;-3.20;99.90;;;;;;6313535;22;20038;-78
2024/01/21 02:46:08;;;;;;;6.65;3.67;;;-3.10;99.90;;;;;;6314748;22;20027;-78
2024/01/21 02:48:36;;;;;;;10.85;3.90;;;-3.10;99.90;;;;;;6303026;22;20022;-77
2024/01/21 02:51:05;;;;;;;15.98;6.32;;;-3.10;99.90;;;;;;6302253;22;20026;-78
2024/01/21 02:53:33;;;;;;;17.15;6.07;;;-3.10;99.90;;;;;;6328972;22;20042;-78
2024/01/21 02:56:01;;;;;;;16.13;6.38;;;-3.10;99.90;;;;;;6329502;22;20726;-78
2024/01/21 02:58:30;;;;;;;20.52;7.45;;;-3.20;99.90;;;;;;6328459;22;20027;-77
2024/01/21 03:01:00;;;;;;;19.55;7.28;;;-3.30;99.90;;;;;;6301121;22;20026;-78
2024/01/21 03:03:28;;;;;;;19.08;6.95;;;-3.30;99.90;;;;;;6301315;22;20030;-78
2024/01/21 03:05:57;;;;;;;18.33;7.53;;;-3.30;99.90;;;;;;6302067;22;20070;-78
2024/01/21 03:08:25;;;;;;;14.52;7.18;;;-3.40;99.90;;;;;;6301867;22;20027;-77
2024/01/21 03:10:54;;;;;;;28.38;10.50;;;-3.40;99.90;;;;;;6301881;22;20030;-78
2024/01/21 03:13:22;;;;;;;24.02;8.63;;;-3.50;99.90;;;;;;6300786;22;20054;-78
2024/01/21 03:15:50;;;;;;;19.35;8.32;;;-3.60;99.90;;;;;;6302962;22;20019;-77
2024/01/21 03:18:21;;;;;;;25.63;8.65;;;-3.60;99.90;;;;;;6301929;22;20379;-78
2024/01/21 03:20:49;;;;;;;19.58;7.15;;;-3.60;99.90;;;;;;6312908;22;20375;-79
2024/01/21 03:23:18;;;;;;;17.58;8.43;;;-3.70;99.90;;;;;;6302782;22;20029;-78
2024/01/21 03:25:47;;;;;;;19.90;7.97;;;-3.70;99.90;;;;;;6302324;22;20081;-77
2024/01/21 03:28:15;;;;;;;19.58;9.32;;;-3.60;99.90;;;;;;6301716;22;20118;-78
2024/01/21 03:30:44;;;;;;;23.50;8.35;;;-3.60;99.90;;;;;;6301908;22;20082;-77
2024/01/21 03:33:12;;;;;;;19.45;7.60;;;-3.70;99.90;;;;;;6302090;22;20079;-78
2024/01/21 03:35:43;;;;;;;19.27;7.28;;;-3.70;99.90;;;;;;6301884;22;20051;-78
2024/01/21 03:38:11;;;;;;;18.00;7.88;;;-3.60;99.90;;;;;;6301506;22;20027;-78
2024/01/21 03:40:40;;;;;;;17.88;7.70;;;-3.60;99.90;;;;;;6302941;22;20026;-77
2024/01/21 03:43:08;;;;;;;19.20;6.93;;;-3.70;99.90;;;;;;6328310;22;20021;-78
2024/01/21 03:45:37;;;;;;;21.27;7.45;;;-3.70;99.90;;;;;;6301093;22;20834;-78
2024/01/21 03:48:06;;;;;;;17.27;7.18;;;-3.70;99.90;;;;;;6301345;22;20019;-77
2024/01/21 03:50:35;;;;;;;21.00;8.02;;;-3.80;99.90;;;;;;6328877;22;20025;-77
2024/01/21 03:53:05;;;;;;;23.77;8.45;;;-3.80;99.90;;;;;;6332620;22;20079;-78
2024/01/21 03:55:33;;;;;;;18.80;6.78;;;-3.80;99.90;;;;;;6301006;22;20022;-78
2024/01/21 03:58:01;;;;;;;23.30;8.20;;;-3.70;99.90;;;;;;6301133;22;20513;-78
2024/01/21 04:00:30;;;;;;;21.02;8.77;;;-3.80;99.90;;;;;;6301714;22;20019;-78
2024/01/21 04:02:58;;;;;;;21.85;7.68;;;-3.90;99.90;;;;;;6301505;22;20773;-77
2024/01/21 04:05:27;;;;;;;24.13;9.07;;;-3.90;99.90;;;;;;6306405;22;20107;-78
2024/01/21 04:07:55;;;;;;;27.02;9.18;;;-4.00;99.90;;;;;;6301738;22;20043;-78
2024/01/21 04:10:25;;;;;;;21.45;7.88;;;-4.00;99.90;;;;;;6300128;22;20403;-78
2024/01/21 04:12:53;;;;;;;24.65;10.10;;;-4.00;99.90;;;;;;6300280;22;20023;-78
2024/01/21 04:15:22;;;;;;;27.25;10.05;;;-4.00;99.90;;;;;;6303252;22;20470;-77
2024/01/21 04:17:50;;;;;;;23.65;8.50;;;-4.00;99.90;;;;;;6306584;22;20023;-78
2024/01/21 04:20:19;;;;;;;21.60;8.25;;;-4.10;99.90;;;;;;6306551;22;20050;-78
2024/01/21 04:22:47;;;;;;;28.75;9.00;;;-4.00;99.90;;;;;;6308650;22;20027;-77
2024/01/21 04:25:16;;;;;;;28.88;8.82;;;-4.00;99.90;;;;;;6300865;22;20027;-77
2024/01/21 04:27:45;;;;;;;26.52;9.25;;;-4.10;99.90;;;;;;6328052;22;20049;-77
2024/01/21 04:30:14;;;;;;;29.42;9.07;;;-4.10;99.90;;;;;;6302192;22;20029;-78
2024/01/21 04:32:43;;;;;;;26.77;9.00;;;-4.10;99.90;;;;;;6301207;22;20022;-78
2024/01/21 04:35:11;;;;;;;21.88;8.77;;;-4.20;99.90;;;;;;6304453;22;20022;-77
2024/01/21 04:37:40;;;;;;;21.63;7.43;;;-4.00;99.90;;;;;;6306644;22;20761;-77
2024/01/21 04:40:09;;;;;;;23.98;9.05;;;-3.90;99.90;;;;;;6326076;22;20023;-77
2024/01/21 04:42:38;;;;;;;20.80;8.23;;;-4.20;99.90;;;;;;6299644;22;20760;-78
2024/01/21 04:45:09;;;;;;;25.02;8.65;;;-4.20;99.90;;;;;;6301247;22;20042;-78
2024/01/21 04:47:39;;;;;;;27.23;9.20;;;-4.20;99.90;;;;;;6299023;22;20022;-78
2024/01/21 04:50:08;;;;;;;25.00;9.88;;;-4.30;99.90;;;;;;6299600;22;20030;-77
2024/01/21 04:52:37;;;;;;;26.42;10.48;;;-4.20;99.90;;;;;;6327430;22;20103;-78
2024/01/21 04:55:06;;;;;;;29.75;12.52;;;-4.30;99.90;;;;;;6333185;22;20023;-77
2024/01/21 04:57:34;;;;;;;24.42;9.48;;;-4.30;99.90;;;;;;6299914;22;20076;-77
2024/01/21 05:00:03;;;;;;;26.63;11.07;;;-4.30;99.90;;;;;;6300061;22;20736;-77
2024/01/21 06:13:51;;;;;;;33.03;12.15;;;-4.50;99.90;;;;;;6320118;22;20168;-78
2024/01/21 06:16:20;;;;;;;35.20;13.25;;;-4.40;99.90;;;;;;6332302;22;20083;-77
2024/01/21 06:18:48;;;;;;;38.63;13.35;;;-4.60;99.90;;;;;;6332654;22;20026;-77
2024/01/21 06:21:17;;;;;;;34.72;11.40;;;-4.30;99.90;;;;;;6332794;22;20026;-77
2024/01/21 06:23:46;;;;;;;42.17;14.75;;;-4.50;99.90;;;;;;6359913;22;20030;-78
2024/01/21 06:26:19;;;;;;;30.08;12.68;;;-4.50;99.90;;;;;;6332239;22;20050;-78
2024/01/21 06:28:48;;;;;;;32.78;13.00;;;-4.40;99.90;;;;;;6331953;22;20014;-77
2024/01/21 06:31:17;;;;;;;37.45;15.07;;;-4.40;99.90;;;;;;6339869;22;20058;-79
2024/01/21 06:33:46;;;;;;;45.90;15.38;;;-4.50;99.90;;;;;;6335757;22;20741;-78
2024/01/21 06:36:15;;;;;;;38.22;13.43;;;-4.40;99.90;;;;;;6363040;22;20214;-78
2024/01/21 06:38:43;;;;;;;39.08;14.73;;;-4.40;99.90;;;;;;6335887;22;20018;-78
2024/01/21 06:41:12;;;;;;;44.22;17.27;;;-4.40;99.90;;;;;;6333045;22;20045;-78
2024/01/21 06:43:40;;;;;;;48.88;17.15;;;-4.50;99.90;;;;;;6359828;22;20018;-78
2024/01/21 06:46:09;;;;;;;50.67;18.33;;;-4.50;99.90;;;;;;6331391;22;20019;-77
2024/01/21 06:48:39;;;;;;;49.40;17.35;;;-4.40;99.90;;;;;;6331697;22;20479;-77
2024/01/21 06:51:10;;;;;;;60.72;19.73;;;-4.50;99.90;;;;;;6359517;22;20028;-77
2024/01/21 06:53:39;;;;;;;54.28;17.67;;;-4.40;99.90;;;;;;6332036;22;20579;-78
2024/01/21 06:56:08;;;;;;;55.70;20.55;;;-4.40;99.90;;;;;;6336621;22;20430;-78
2024/01/21 06:58:37;;;;;;;55.78;20.05;;;-4.40;99.90;;;;;;6358712;22;20020;-78
2024/01/21 07:01:05;;;;;;;48.65;17.23;;;-4.30;99.90;;;;;;6330294;22;20026;-77
2024/01/21 07:03:33;;;;;;;57.35;18.83;;;-4.30;99.90;;;;;;6337507;22;20050;-78
2024/01/21 07:06:04;;;;;;;61.15;19.60;;;-4.20;99.90;;;;;;6333073;22;20731;-78
2024/01/21 07:08:32;;;;;;;69.43;23.35;;;-4.10;99.90;;;;;;6363441;22;20138;-77
2024/01/21 07:11:01;;;;;;;67.45;21.30;;;-4.10;99.90;;;;;;6361464;22;20018;-78
2024/01/21 07:13:29;;;;;;;56.58;18.58;;;-4.00;99.90;;;;;;6328028;22;20038;-78
2024/01/21 07:15:58;;;;;;;57.58;20.75;;;-4.00;99.90;;;;;;6331746;22;20027;-78
2024/01/21 07:18:26;;;;;;;61.63;20.83;;;-4.00;99.90;;;;;;6329670;22;20083;-77
2024/01/21 07:20:54;;;;;;;63.35;23.00;;;-4.00;99.90;;;;;;6332229;22;20068;-78
2024/01/21 07:23:24;;;;;;;75.45;25.65;;;-3.90;99.90;;;;;;6332083;22;20650;-78
2024/01/21 07:25:52;;;;;;;63.85;23.48;;;-3.80;99.90;;;;;;6332235;22;20053;-78
2024/01/21 07:28:21;;;;;;;80.45;26.98;;;-3.70;99.90;;;;;;6332575;22;20052;-78
2024/01/21 07:30:49;;;;;;;81.65;29.50;;;-3.60;99.90;;;;;;6333328;22;20019;-78
2024/01/21 07:33:19;;;;;;;89.60;31.02;;;-3.60;99.90;;;;;;6335130;22;20117;-78
2024/01/21 07:35:50;;;;;;;93.20;32.67;;;-3.50;99.90;;;;;;6333293;22;20022;-78
2024/01/21 07:38:18;;;;;;;89.32;28.17;;;-3.40;99.90;;;;;;6337335;22;20018;-78
2024/01/21 07:40:48;;;;;;;74.25;26.95;;;-2.80;99.90;;;;;;6335676;22;20084;-79
2024/01/21 07:43:17;;;;;;;78.55;25.52;;;-3.10;99.90;;;;;;6347950;22;20011;-80
2024/01/21 07:45:46;;;;;;;67.53;23.58;;;-3.20;99.90;;;;;;6355249;22;20013;-80
2024/01/21 07:48:15;;;;;;;53.58;20.23;;;-1.20;99.90;;;;;;6356286;22;20053;-80
2024/01/21 07:50:44;;;;;;;53.92;20.90;;;-2.80;99.90;;;;;;6357389;22;20003;-80
2024/01/21 07:53:13;;;;;;;58.70;20.55;;;-2.20;99.90;;;;;;6357095;22;19995;-80
2024/01/21 07:55:42;;;;;;;44.38;18.90;;;-2.90;99.90;;;;;;6356019;22;20003;-80
2024/01/21 07:58:15;;;;;;;53.22;20.30;;;-1.60;99.90;;;;;;6357376;22;19999;-80
2024/01/21 08:00:44;;;;;;;54.50;19.70;;;-2.40;99.90;;;;;;6357110;22;20036;-79
2024/01/21 08:12:21;;;;;;;41.03;15.45;;;-2.10;99.90;;;;;;6295338;22;20084;-77
2024/01/21 08:14:51;;;;;;;37.63;15.77;;;-1.50;99.90;;;;;;6308023;22;20026;-78
2024/01/21 08:17:20;;;;;;;46.83;17.00;;;-1.90;99.90;;;;;;6306224;22;20023;-77
2024/01/21 08:19:48;;;;;;;43.35;18.45;;;-1.80;99.90;;;;;;6310280;22;20023;-78
2024/01/21 08:22:17;;;;;;;43.42;18.02;;;-1.70;99.90;;;;;;6309491;22;20029;-77
2024/01/21 08:24:45;;;;;;;36.70;14.60;;;-1.50;99.90;;;;;;6308828;22;20157;-78
2024/01/21 08:27:14;;;;;;;38.35;15.90;;;-1.50;99.90;;;;;;6310319;22;20018;-77
2024/01/21 08:29:42;;;;;;;35.85;13.60;;;-1.40;99.90;;;;;;6311012;22;20029;-77
2024/01/21 08:32:13;;;;;;;33.85;12.45;;;-1.40;99.90;;;;;;6311532;22;20386;-77
2024/01/21 08:37:38;;;;;;;29.05;10.25;;;-1.20;99.90;;;;;;6276189;22;20367;-79
2024/01/21 08:40:08;;;;;;;28.90;11.15;;;-1.20;99.90;;;;;;6325049;22;20221;-83
2024/01/21 08:54:53;;;;;;;43.00;16.30;;;-0.90;99.90;;;;;;6290079;22;20030;-77
2024/01/21 08:57:22;;;;;;;44.22;17.60;;;-0.80;99.90;;;;;;6315358;22;20069;-80
2024/01/21 08:59:51;;;;;;;48.65;19.40;;;-0.70;99.90;;;;;;6328559;22;20041;-80
2024/01/21 09:02:20;;;;;;;42.35;16.80;;;0.50;99.90;;;;;;6328638;22;20023;-80
2024/01/21 09:04:52;;;;;;;37.33;15.77;;;-0.60;99.90;;;;;;6328786;22;20003;-80
2024/01/21 09:07:21;;;;;;;44.05;16.13;;;-0.40;99.90;;;;;;6328888;22;20010;-81
2024/01/21 09:09:51;;;;;;;51.70;18.27;;;-0.70;99.90;;;;;;6327617;22;20038;-80
2024/01/21 09:12:20;;;;;;;43.40;17.58;;;-0.50;99.90;;;;;;6328189;22;20010;-81
2024/01/21 09:30:13;;;;;;;21.92;8.98;;;0.10;99.90;;;;;;6327061;22;19933;-81
2024/01/21 09:32:44;;;;;;;22.30;10.23;;;0.20;99.90;;;;;;6327150;22;19999;-81
2024/01/21 09:56:01;;;;;;;24.92;10.88;;;0.80;99.90;;;;;;5953439;24;20027;-82
2024/01/21 09:59:17;;;;;;;26.70;10.10;;;1.00;99.90;;;;;;6030008;23;20048;-80
2024/01/21 11:37:43;;;;;;;29.50;11.80;;;2.20;99.90;;;;;;6296642;22;20033;-81
2024/01/21 16:56:18;;;;;;;325.67;76.82;;;-1.80;99.90;;;;;;6320694;22;20052;-82
2024/01/21 17:43:39;;;;;;;127.95;42.25;;;-2.20;99.90;;;;;;6219765;23;20032;-81
2024/01/21 18:02:24;;;;;;;176.80;58.88;;;-2.30;99.90;;;;;;6330817;22;20030;-79
2024/01/21 18:14:24;;;;;;;161.82;57.78;;;-2.30;99.90;;;;;;6270994;22;20032;-81
2024/01/21 18:16:56;;;;;;;;;;;-2.40;99.90;;;;;;6179208;23;20013;-80
2024/01/21 18:23:59;;;;;;;136.80;50.72;;;-2.50;99.90;;;;;;6122432;23;20090;-81
2024/01/21 18:27:02;;;;;;;136.52;48.85;;;-2.50;99.90;;;;;;6005747;24;20024;-81
2024/01/21 18:33:46;;;;;;;138.93;47.50;;;-2.60;99.90;;;;;;5970362;24;20024;-81
2024/01/21 18:37:11;;;;;;;161.18;55.13;;;-2.60;99.90;;;;;;6008301;24;20069;-80
2024/01/21 18:44:06;;;;;;;165.95;58.70;;;-3.00;99.90;;;;;;5978748;24;20042;-81
2024/01/21 18:47:27;;;;;;;159.60;56.95;;;-2.60;99.90;;;;;;5887692;24;20022;-80
2024/01/21 18:57:38;;;;;;;128.82;48.45;;;-2.70;99.90;;;;;;5791596;24;20111;-81
2024/01/21 19:15:02;;;;;;;132.80;43.72;;;-2.80;99.90;;;;;;5814511;24;20061;-80
2024/01/21 19:18:05;;;;;;;148.13;47.35;;;-3.20;99.90;;;;;;5841367;24;20100;-80
2024/01/21 19:21:07;;;;;;;126.60;46.05;;;-2.80;99.90;;;;;;5845104;24;20037;-80
2024/01/21 19:23:46;;;;;;;143.57;45.65;;;-2.80;99.90;;;;;;5856702;24;20022;-80
2024/01/21 19:27:03;;;;;;;146.93;48.80;;;-2.80;99.90;;;;;;5939452;24;20376;-81
2024/01/21 19:30:05;;;;;;;159.93;49.97;;;-2.90;99.90;;;;;;5921599;24;20036;-80
2024/01/21 19:32:44;;;;;;;138.23;50.45;;;-2.90;99.90;;;;;;5922439;24;20028;-80
2024/01/21 19:35:45;;;;;;;118.30;40.30;;;-2.80;99.90;;;;;;5972068;24;20069;-80
2024/01/21 19:39:05;;;;;;;132.00;46.85;;;-2.90;99.90;;;;;;6004755;24;20051;-80
2024/01/21 19:41:40;;;;;;;129.25;42.80;;;-2.90;99.90;;;;;;5976775;24;20020;-80
2024/01/21 19:44:22;;;;;;;118.07;39.65;;;-4.20;99.90;;;;;;5953440;24;20085;-80
2024/01/21 19:47:12;;;;;;;117.20;40.80;;;-2.90;99.90;;;;;;5926130;24;20091;-80
2024/01/21 19:53:17;;;;;;;139.82;45.47;;;-3.00;99.90;;;;;;6315001;22;20022;-80
2024/01/21 20:00:17;;;;;;;110.85;41.22;;;-3.30;99.90;;;;;;6337266;22;20027;-81
2024/01/21 20:03:50;;;;;;;112.13;38.85;;;-3.00;99.90;;;;;;6271259;23;20044;-81
2024/01/21 20:10:34;;;;;;;115.85;40.80;;;-3.00;99.90;;;;;;6185380;23;20017;-81
2024/01/21 20:18:40;;;;;;;107.03;40.92;;;-3.00;99.90;;;;;;6175175;23;20025;-81
2024/01/21 20:22:24;;;;;;;120.88;42.15;;;-3.10;99.90;;;;;;6117842;23;20006;-81
2024/01/21 21:43:54;;;;;;;122.00;41.78;;;-3.30;99.90;;;;;;6017612;23;20016;-81
2024/01/21 21:48:05;;;;;;;128.20;44.72;;;-3.30;99.90;;;;;;5980883;24;20178;-81
2024/01/21 22:26:05;;;;;;;150.80;47.22;;;-3.50;99.90;;;;;;6092817;23;20038;-81
2024/01/21 22:33:42;;;;;;;125.75;44.00;;;-3.00;99.90;;;;;;5923300;24;20076;-81
2024/01/21 22:50:30;;;;;;;110.35;39.15;;;-3.30;99.90;;;;;;5976682;24;20062;-81
2024/01/21 22:53:15;;;;;;;113.03;40.33;;;-3.70;99.90;;;;;;5974010;24;20024;-80
2024/01/21 22:56:06;;;;;;;113.80;39.03;;;-3.60;99.90;;;;;;5977473;24;20025;-80
2024/01/21 22:59:11;;;;;;;107.00;40.05;;;-3.70;99.90;;;;;;5948504;24;20031;-81
2024/01/21 23:17:26;;;;;;;131.88;44.28;;;-3.90;99.90;;;;;;6006129;23;20028;-80
2024/01/21 23:20:46;;;;;;;128.05;44.80;;;-3.90;99.90;;;;;;6074496;23;19999;-80
2024/01/21 23:23:47;;;;;;;120.32;44.50;;;-4.00;99.90;;;;;;6149610;23;20085;-80
2024/01/21 23:46:12;;;;;;;124.18;40.47;;;-5.10;99.90;;;;;;6296525;22;20023;-80
2024/01/21 23:48:55;;;;;;;117.00;40.70;;;-2.90;99.90;;;;;;6207766;23;20069;-80
